sensor_id;sensor_type;location;lat;lon;timestamp;temperature;humidity
29007;DHT22;16104;48.642;9.008;2022-12-18T00:01:33;-5.90;63.30
29007;DHT22;16104;48.642;9.008;2022-12-18T00:06:29;-5.90;63.40
29007;DHT22;16104;48.642;9.008;2022-12-18T00:11:27;-5.90;63.20
29007;DHT22;16104;48.642;9.008;2022-12-18T00:16:25;-6.00;63.00
29007;DHT22;16104;48.642;9.008;2022-12-18T00:21:21;-6.00;63.00
29007;DHT22;16104;48.642;9.008;2022-12-18T00:26:20;-6.00;62.90
29007;DHT22;16104;48.642;9.008;2022-12-18T00:31:19;-6.00;63.00
29007;DHT22;16104;48.642;9.008;2022-12-18T00:36:18;-6.10;62.90
29007;DHT22;16104;48.642;9.008;2022-12-18T00:41:15;-6.10;63.10
29007;DHT22;16104;48.642;9.008;2022-12-18T00:46:31;-6.10;63.30
29007;DHT22;16104;48.642;9.008;2022-12-18T00:51:27;-6.10;63.50
29007;DHT22;16104;48.642;9.008;2022-12-18T00:56:23;-6.10;63.70
29007;DHT22;16104;48.642;9.008;2022-12-18T02:02:23;-5.90;65.60
29007;DHT22;16104;48.642;9.008;2022-12-18T02:12:48;-5.80;66.50
29007;DHT22;16104;48.642;9.008;2022-12-18T03:03:41;-5.80;66.10
29007;DHT22;16104;48.642;9.008;2022-12-18T03:08:43;-5.80;66.80
29007;DHT22;16104;48.642;9.008;2022-12-18T03:13:50;-5.80;67.20
29007;DHT22;16104;48.642;9.008;2022-12-18T04:04:37;-5.60;67.50
29007;DHT22;16104;48.642;9.008;2022-12-18T04:09:34;-5.60;67.50
29007;DHT22;16104;48.642;9.008;2022-12-18T04:14:30;-5.60;67.50
29007;DHT22;16104;48.642;9.008;2022-12-18T04:19:30;-5.60;67.60
29007;DHT22;16104;48.642;9.008;2022-12-18T04:24:26;-5.60;67.60
29007;DHT22;16104;48.642;9.008;2022-12-18T04:29:21;-5.60;67.40
29007;DHT22;16104;48.642;9.008;2022-12-18T04:34:17;-5.60;67.60
29007;DHT22;16104;48.642;9.008;2022-12-18T04:39:13;-5.60;67.80
29007;DHT22;16104;48.642;9.008;2022-12-18T04:44:08;-5.60;67.90
29007;DHT22;16104;48.642;9.008;2022-12-18T04:49:04;-5.60;68.00
29007;DHT22;16104;48.642;9.008;2022-12-18T04:53:59;-5.60;68.10
29007;DHT22;16104;48.642;9.008;2022-12-18T04:58:55;-5.60;68.20
29007;DHT22;16104;48.642;9.008;2022-12-18T05:03:53;-5.60;68.10
29007;DHT22;16104;48.642;9.008;2022-12-18T05:08:49;-5.60;68.20
29007;DHT22;16104;48.642;9.008;2022-12-18T05:13:45;-5.60;68.10
29007;DHT22;16104;48.642;9.008;2022-12-18T05:18:41;-5.50;68.00
29007;DHT22;16104;48.642;9.008;2022-12-18T05:23:37;-5.60;67.90
29007;DHT22;16104;48.642;9.008;2022-12-18T05:28:34;-5.50;67.80
29007;DHT22;16104;48.642;9.008;2022-12-18T05:33:32;-5.50;67.80
29007;DHT22;16104;48.642;9.008;2022-12-18T05:38:29;-5.50;67.80
29007;DHT22;16104;48.642;9.008;2022-12-18T05:43:26;-5.50;67.70
29007;DHT22;16104;48.642;9.008;2022-12-18T05:48:22;-5.50;67.60
29007;DHT22;16104;48.642;9.008;2022-12-18T05:53:19;-5.50;67.50
29007;DHT22;16104;48.642;9.008;2022-12-18T05:58:15;-5.40;67.60
29007;DHT22;16104;48.642;9.008;2022-12-18T06:03:12;-5.40;67.60
29007;DHT22;16104;48.642;9.008;2022-12-18T06:08:08;-5.40;67.50
29007;DHT22;16104;48.642;9.008;2022-12-18T06:13:04;-5.30;67.40
29007;DHT22;16104;48.642;9.008;2022-12-18T06:18:00;-5.30;67.00
29007;DHT22;16104;48.642;9.008;2022-12-18T06:22:56;-5.30;66.80
29007;DHT22;16104;48.642;9.008;2022-12-18T06:27:52;-5.30;66.40
29007;DHT22;16104;48.642;9.008;2022-12-18T06:32:50;-5.40;66.10
29007;DHT22;16104;48.642;9.008;2022-12-18T06:37:46;-5.30;65.90
29007;DHT22;16104;48.642;9.008;2022-12-18T06:42:41;-5.40;65.90
29007;DHT22;16104;48.642;9.008;2022-12-18T06:47:37;-5.40;65.70
29007;DHT22;16104;48.642;9.008;2022-12-18T06:52:33;-5.40;65.50
29007;DHT22;16104;48.642;9.008;2022-12-18T06:57:28;-5.40;65.50
29007;DHT22;16104;48.642;9.008;2022-12-18T07:02:24;-5.40;65.40
29007;DHT22;16104;48.642;9.008;2022-12-18T07:07:19;-5.50;65.30
29007;DHT22;16104;48.642;9.008;2022-12-18T07:12:15;-5.50;65.40
29007;DHT22;16104;48.642;9.008;2022-12-18T07:17:10;-5.50;65.60
29007;DHT22;16104;48.642;9.008;2022-12-18T07:22:06;-5.50;65.80
29007;DHT22;16104;48.642;9.008;2022-12-18T07:27:02;-5.50;65.90
29007;DHT22;16104;48.642;9.008;2022-12-18T07:31:57;-5.50;66.30
29007;DHT22;16104;48.642;9.008;2022-12-18T07:36:53;-5.50;66.50
29007;DHT22;16104;48.642;9.008;2022-12-18T07:41:48;-5.40;66.80
29007;DHT22;16104;48.642;9.008;2022-12-18T07:47:04;-5.40;67.10
29007;DHT22;16104;48.642;9.008;2022-12-18T07:51:59;-5.30;67.50
29007;DHT22;16104;48.642;9.008;2022-12-18T07:56:55;-5.30;67.60
29007;DHT22;16104;48.642;9.008;2022-12-18T08:01:50;-5.20;67.70
29007;DHT22;16104;48.642;9.008;2022-12-18T08:06:46;-5.10;67.70
29007;DHT22;16104;48.642;9.008;2022-12-18T08:11:42;-5.00;67.70
29007;DHT22;16104;48.642;9.008;2022-12-18T08:16:37;-4.90;67.60
29007;DHT22;16104;48.642;9.008;2022-12-18T08:21:33;-4.90;67.50
29007;DHT22;16104;48.642;9.008;2022-12-18T08:26:30;-4.80;67.50
29007;DHT22;16104;48.642;9.008;2022-12-18T08:31:28;-4.70;67.50
29007;DHT22;16104;48.642;9.008;2022-12-18T08:36:24;-4.70;67.40
29007;DHT22;16104;48.642;9.008;2022-12-18T08:41:20;-4.60;67.40
29007;DHT22;16104;48.642;9.008;2022-12-18T08:46:17;-4.50;67.60
29007;DHT22;16104;48.642;9.008;2022-12-18T08:51:13;-4.40;67.80
29007;DHT22;16104;48.642;9.008;2022-12-18T08:56:11;-4.30;68.00
29007;DHT22;16104;48.642;9.008;2022-12-18T09:01:09;-4.20;68.20
29007;DHT22;16104;48.642;9.008;2022-12-18T09:06:05;-4.10;68.20
29007;DHT22;16104;48.642;9.008;2022-12-18T09:11:01;-3.90;68.40
29007;DHT22;16104;48.642;9.008;2022-12-18T09:15:57;-3.80;68.50
29007;DHT22;16104;48.642;9.008;2022-12-18T09:20:53;-3.70;68.60
29007;DHT22;16104;48.642;9.008;2022-12-18T09:25:48;-3.50;68.60
29007;DHT22;16104;48.642;9.008;2022-12-18T09:30:47;-3.40;68.70
29007;DHT22;16104;48.642;9.008;2022-12-18T09:35:44;-3.20;68.70
29007;DHT22;16104;48.642;9.008;2022-12-18T09:40:56;-3.10;68.70
29007;DHT22;16104;48.642;9.008;2022-12-18T09:45:59;-2.90;68.80
29007;DHT22;16104;48.642;9.008;2022-12-18T09:51:01;-2.80;68.80
29007;DHT22;16104;48.642;9.008;2022-12-18T09:55:57;-2.60;68.70
29007;DHT22;16104;48.642;9.008;2022-12-18T10:00:53;-2.40;68.70
29007;DHT22;16104;48.642;9.008;2022-12-18T10:06:05;-2.30;68.70
29007;DHT22;16104;48.642;9.008;2022-12-18T10:11:38;-2.10;68.70
29007;DHT22;16104;48.642;9.008;2022-12-18T10:17:45;-1.90;68.50
29007;DHT22;16104;48.642;9.008;2022-12-18T10:27:33;-1.50;68.60
29007;DHT22;16104;48.642;9.008;2022-12-18T10:32:30;-1.20;68.50
29007;DHT22;16104;48.642;9.008;2022-12-18T10:37:27;-1.00;68.20
29007;DHT22;16104;48.642;9.008;2022-12-18T10:42:25;-0.70;68.20
29007;DHT22;16104;48.642;9.008;2022-12-18T10:47:20;-0.50;67.90
29007;DHT22;16104;48.642;9.008;2022-12-18T10:52:21;-0.20;67.80
29007;DHT22;16104;48.642;9.008;2022-12-18T10:57:31;0.00;67.30
29007;DHT22;16104;48.642;9.008;2022-12-18T11:02:38;0.30;66.90
29007;DHT22;16104;48.642;9.008;2022-12-18T11:07:48;0.60;66.40
29007;DHT22;16104;48.642;9.008;2022-12-18T11:12:44;0.80;65.80
29007;DHT22;16104;48.642;9.008;2022-12-18T11:17:40;1.10;65.90
29007;DHT22;16104;48.642;9.008;2022-12-18T11:22:36;1.30;66.70
29007;DHT22;16104;48.642;9.008;2022-12-18T11:27:33;1.60;65.60
29007;DHT22;16104;48.642;9.008;2022-12-18T11:32:35;1.90;65.40
29007;DHT22;16104;48.642;9.008;2022-12-18T11:37:32;2.10;64.60
29007;DHT22;16104;48.642;9.008;2022-12-18T11:42:37;2.40;64.70
29007;DHT22;16104;48.642;9.008;2022-12-18T11:52:58;2.80;63.70
29007;DHT22;16104;48.642;9.008;2022-12-18T12:03:19;3.30;62.80
29007;DHT22;16104;48.642;9.008;2022-12-18T12:08:55;3.40;62.80
29007;DHT22;16104;48.642;9.008;2022-12-18T12:19:01;3.50;61.80
29007;DHT22;16104;48.642;9.008;2022-12-18T12:34:26;3.80;60.40
29007;DHT22;16104;48.642;9.008;2022-12-18T12:39:31;3.70;60.50
29007;DHT22;16104;48.642;9.008;2022-12-18T12:49:46;3.70;60.70
29007;DHT22;16104;48.642;9.008;2022-12-18T12:54:43;3.70;60.70
29007;DHT22;16104;48.642;9.008;2022-12-18T13:00:00;3.70;60.40
29007;DHT22;16104;48.642;9.008;2022-12-18T13:05:03;3.70;60.00
29007;DHT22;16104;48.642;9.008;2022-12-18T13:15:29;3.80;60.00
29007;DHT22;16104;48.642;9.008;2022-12-18T13:20:33;3.80;60.90
29007;DHT22;16104;48.642;9.008;2022-12-18T13:35:38;3.90;59.40
29007;DHT22;16104;48.642;9.008;2022-12-18T13:45:45;3.90;59.50
29007;DHT22;16104;48.642;9.008;2022-12-18T13:50:42;3.80;59.70
29007;DHT22;16104;48.642;9.008;2022-12-18T13:55:37;3.80;59.80
29007;DHT22;16104;48.642;9.008;2022-12-18T14:00:33;3.80;60.00
29007;DHT22;16104;48.642;9.008;2022-12-18T14:05:33;3.80;59.90
29007;DHT22;16104;48.642;9.008;2022-12-18T14:10:30;3.70;59.80
29007;DHT22;16104;48.642;9.008;2022-12-18T14:20:22;3.50;59.80
29007;DHT22;16104;48.642;9.008;2022-12-18T14:25:24;3.40;59.80
29007;DHT22;16104;48.642;9.008;2022-12-18T14:35:20;3.20;59.70
29007;DHT22;16104;48.642;9.008;2022-12-18T14:40:16;3.10;59.80
29007;DHT22;16104;48.642;9.008;2022-12-18T14:45:36;3.10;59.90
29007;DHT22;16104;48.642;9.008;2022-12-18T14:50:32;3.00;59.70
29007;DHT22;16104;48.642;9.008;2022-12-18T14:55:28;2.90;60.00
29007;DHT22;16104;48.642;9.008;2022-12-18T15:00:24;2.80;60.10
29007;DHT22;16104;48.642;9.008;2022-12-18T15:05:31;2.70;60.10
29007;DHT22;16104;48.642;9.008;2022-12-18T15:20:32;2.30;60.00
29007;DHT22;16104;48.642;9.008;2022-12-18T15:25:36;2.20;60.20
29007;DHT22;16104;48.642;9.008;2022-12-18T15:30:33;2.10;60.30
29007;DHT22;16104;48.642;9.008;2022-12-18T15:35:28;1.90;60.40
29007;DHT22;16104;48.642;9.008;2022-12-18T15:40:24;1.80;60.60
29007;DHT22;16104;48.642;9.008;2022-12-18T15:45:19;1.70;60.70
29007;DHT22;16104;48.642;9.008;2022-12-18T15:50:15;1.60;60.90
29007;DHT22;16104;48.642;9.008;2022-12-18T15:55:13;1.50;61.00
29007;DHT22;16104;48.642;9.008;2022-12-18T16:00:27;1.40;61.10
29007;DHT22;16104;48.642;9.008;2022-12-18T16:05:23;1.30;61.20
29007;DHT22;16104;48.642;9.008;2022-12-18T16:10:19;1.20;61.40
29007;DHT22;16104;48.642;9.008;2022-12-18T16:15:16;1.10;61.40
29007;DHT22;16104;48.642;9.008;2022-12-18T16:20:20;1.10;61.50
29007;DHT22;16104;48.642;9.008;2022-12-18T16:25:19;1.00;61.70
29007;DHT22;16104;48.642;9.008;2022-12-18T16:30:18;0.90;61.80
29007;DHT22;16104;48.642;9.008;2022-12-18T16:35:15;0.80;61.90
29007;DHT22;16104;48.642;9.008;2022-12-18T16:40:13;0.80;62.10
29007;DHT22;16104;48.642;9.008;2022-12-18T16:45:12;0.80;62.10
29007;DHT22;16104;48.642;9.008;2022-12-18T16:50:08;0.70;62.20
29007;DHT22;16104;48.642;9.008;2022-12-18T16:55:05;0.70;62.40
29007;DHT22;16104;48.642;9.008;2022-12-18T17:00:00;0.60;62.40
29007;DHT22;16104;48.642;9.008;2022-12-18T17:04:57;0.60;62.60
29007;DHT22;16104;48.642;9.008;2022-12-18T17:09:53;0.60;62.70
29007;DHT22;16104;48.642;9.008;2022-12-18T17:14:49;0.50;62.90
29007;DHT22;16104;48.642;9.008;2022-12-18T17:19:44;0.50;63.10
29007;DHT22;16104;48.642;9.008;2022-12-18T17:24:40;0.50;63.10
29007;DHT22;16104;48.642;9.008;2022-12-18T17:29:35;0.50;63.20
29007;DHT22;16104;48.642;9.008;2022-12-18T17:34:31;0.50;63.40
29007;DHT22;16104;48.642;9.008;2022-12-18T17:39:26;0.50;63.40
29007;DHT22;16104;48.642;9.008;2022-12-18T17:44:23;0.50;63.40
29007;DHT22;16104;48.642;9.008;2022-12-18T17:49:18;0.50;63.60
29007;DHT22;16104;48.642;9.008;2022-12-18T17:54:14;0.50;63.60
29007;DHT22;16104;48.642;9.008;2022-12-18T17:59:10;0.50;63.60
29007;DHT22;16104;48.642;9.008;2022-12-18T18:04:05;0.50;63.90
29007;DHT22;16104;48.642;9.008;2022-12-18T18:09:01;0.50;63.80
29007;DHT22;16104;48.642;9.008;2022-12-18T18:13:57;0.40;63.80
29007;DHT22;16104;48.642;9.008;2022-12-18T18:18:58;0.50;64.00
29007;DHT22;16104;48.642;9.008;2022-12-18T18:23:54;0.50;64.10
29007;DHT22;16104;48.642;9.008;2022-12-18T18:28:52;0.50;64.10
29007;DHT22;16104;48.642;9.008;2022-12-18T18:33:48;0.50;64.20
29007;DHT22;16104;48.642;9.008;2022-12-18T18:38:44;0.50;64.20
29007;DHT22;16104;48.642;9.008;2022-12-18T18:43:39;0.50;64.30
29007;DHT22;16104;48.642;9.008;2022-12-18T18:48:35;0.60;65.40
29007;DHT22;16104;48.642;9.008;2022-12-18T18:53:35;0.60;64.70
29007;DHT22;16104;48.642;9.008;2022-12-18T18:58:32;0.60;64.80
29007;DHT22;16104;48.642;9.008;2022-12-18T19:03:28;0.60;64.80
29007;DHT22;16104;48.642;9.008;2022-12-18T19:08:24;0.60;64.80
29007;DHT22;16104;48.642;9.008;2022-12-18T19:13:20;0.60;65.00
29007;DHT22;16104;48.642;9.008;2022-12-18T19:18:16;0.60;65.10
29007;DHT22;16104;48.642;9.008;2022-12-18T19:23:12;0.60;65.30
29007;DHT22;16104;48.642;9.008;2022-12-18T19:28:08;0.60;65.50
29007;DHT22;16104;48.642;9.008;2022-12-18T19:33:04;0.60;65.60
29007;DHT22;16104;48.642;9.008;2022-12-18T19:38:00;0.60;65.60
29007;DHT22;16104;48.642;9.008;2022-12-18T19:42:56;0.70;65.80
29007;DHT22;16104;48.642;9.008;2022-12-18T19:47:51;0.70;65.80
29007;DHT22;16104;48.642;9.008;2022-12-18T19:52:46;0.70;65.70
29007;DHT22;16104;48.642;9.008;2022-12-18T19:57:42;0.70;65.70
29007;DHT22;16104;48.642;9.008;2022-12-18T20:02:39;0.80;65.80
29007;DHT22;16104;48.642;9.008;2022-12-18T20:07:34;0.80;65.80
29007;DHT22;16104;48.642;9.008;2022-12-18T20:12:30;0.80;65.90
29007;DHT22;16104;48.642;9.008;2022-12-18T20:17:25;0.90;65.90
29007;DHT22;16104;48.642;9.008;2022-12-18T20:22:21;0.80;65.90
29007;DHT22;16104;48.642;9.008;2022-12-18T20:27:16;0.90;65.90
29007;DHT22;16104;48.642;9.008;2022-12-18T20:32:12;0.90;65.90
29007;DHT22;16104;48.642;9.008;2022-12-18T20:37:08;0.90;65.90
29007;DHT22;16104;48.642;9.008;2022-12-18T20:42:03;1.00;66.00
29007;DHT22;16104;48.642;9.008;2022-12-18T20:46:59;1.00;65.90
29007;DHT22;16104;48.642;9.008;2022-12-18T20:51:57;1.00;65.90
29007;DHT22;16104;48.642;9.008;2022-12-18T20:56:53;1.00;65.90
29007;DHT22;16104;48.642;9.008;2022-12-18T21:01:48;1.00;65.90
29007;DHT22;16104;48.642;9.008;2022-12-18T21:06:44;1.10;66.10
29007;DHT22;16104;48.642;9.008;2022-12-18T21:11:39;1.10;66.10
29007;DHT22;16104;48.642;9.008;2022-12-18T21:16:54;1.10;66.00
29007;DHT22;16104;48.642;9.008;2022-12-18T21:21:51;1.10;65.90
29007;DHT22;16104;48.642;9.008;2022-12-18T21:26:48;1.20;66.10
29007;DHT22;16104;48.642;9.008;2022-12-18T21:31:45;1.20;66.20
29007;DHT22;16104;48.642;9.008;2022-12-18T21:36:40;1.20;66.10
29007;DHT22;16104;48.642;9.008;2022-12-18T21:41:36;1.20;66.20
29007;DHT22;16104;48.642;9.008;2022-12-18T21:46:50;1.20;66.20
29007;DHT22;16104;48.642;9.008;2022-12-18T21:51:47;1.20;66.40
29007;DHT22;16104;48.642;9.008;2022-12-18T21:56:48;1.30;66.50
29007;DHT22;16104;48.642;9.008;2022-12-18T22:01:45;1.30;66.50
29007;DHT22;16104;48.642;9.008;2022-12-18T22:06:41;1.30;66.50
29007;DHT22;16104;48.642;9.008;2022-12-18T22:11:37;1.40;66.50
29007;DHT22;16104;48.642;9.008;2022-12-18T22:16:33;1.40;66.50
29007;DHT22;16104;48.642;9.008;2022-12-18T22:21:33;1.50;66.60
29007;DHT22;16104;48.642;9.008;2022-12-18T22:26:31;1.50;66.50
29007;DHT22;16104;48.642;9.008;2022-12-18T22:31:27;1.60;66.50
29007;DHT22;16104;48.642;9.008;2022-12-18T22:36:23;1.60;67.30
29007;DHT22;16104;48.642;9.008;2022-12-18T22:41:19;1.70;66.40
29007;DHT22;16104;48.642;9.008;2022-12-18T22:46:17;1.70;66.40
29007;DHT22;16104;48.642;9.008;2022-12-18T22:51:14;1.70;66.30
29007;DHT22;16104;48.642;9.008;2022-12-18T22:56:10;1.80;66.40
29007;DHT22;16104;48.642;9.008;2022-12-18T23:01:06;1.80;66.40
29007;DHT22;16104;48.642;9.008;2022-12-18T23:06:04;1.80;66.50
29007;DHT22;16104;48.642;9.008;2022-12-18T23:11:01;1.80;66.50
29007;DHT22;16104;48.642;9.008;2022-12-18T23:15:57;1.90;66.70
29007;DHT22;16104;48.642;9.008;2022-12-18T23:20:53;1.90;66.80
29007;DHT22;16104;48.642;9.008;2022-12-18T23:25:48;1.90;66.90
29007;DHT22;16104;48.642;9.008;2022-12-18T23:30:44;2.00;66.90
29007;DHT22;16104;48.642;9.008;2022-12-18T23:35:39;2.00;66.90
29007;DHT22;16104;48.642;9.008;2022-12-18T23:40:35;2.00;66.90
29007;DHT22;16104;48.642;9.008;2022-12-18T23:45:30;2.10;67.00
29007;DHT22;16104;48.642;9.008;2022-12-18T23:50:34;2.10;67.00
29007;DHT22;16104;48.642;9.008;2022-12-18T23:55:32;2.20;67.00
